createdAt,value
2022-11-15T00:00:03.184Z,1020.09
2022-11-15T00:01:03.749Z,1020.09
2022-11-15T00:02:04.327Z,1020.08
2022-11-15T00:03:04.951Z,1020.08
2022-11-15T00:04:05.526Z,1020.08
2022-11-15T00:05:06.122Z,1020.10
2022-11-15T00:06:06.687Z,1020.10
2022-11-15T00:07:07.292Z,1020.10
2022-11-15T00:08:07.886Z,1020.10
2022-11-15T00:09:08.452Z,1020.09
2022-11-15T00:10:09.180Z,1020.08
2022-11-15T00:11:09.738Z,1020.08
2022-11-15T00:12:10.300Z,1020.08
2022-11-15T00:13:10.852Z,1020.08
2022-11-15T00:14:11.409Z,1020.07
2022-11-15T00:15:12.015Z,1020.08
2022-11-15T00:16:12.593Z,1020.08
2022-11-15T00:17:13.166Z,1020.08
2022-11-15T00:18:13.735Z,1020.06
2022-11-15T00:19:14.322Z,1020.05
2022-11-15T00:20:14.907Z,1020.05
2022-11-15T00:21:15.462Z,1020.05
2022-11-15T00:22:16.032Z,1020.04
2022-11-15T00:23:16.598Z,1020.03
2022-11-15T00:24:17.166Z,1020.03
2022-11-15T00:25:17.792Z,1020.04
2022-11-15T00:26:18.356Z,1020.04
2022-11-15T00:27:18.914Z,1020.02
2022-11-15T00:28:19.471Z,1020.02
2022-11-15T00:29:20.042Z,1020.01
2022-11-15T00:30:20.802Z,1020.01
2022-11-15T00:31:21.360Z,1020.00
2022-11-15T00:32:21.944Z,1020.00
2022-11-15T00:33:22.519Z,1019.99
2022-11-15T00:34:23.109Z,1019.99
2022-11-15T00:35:23.704Z,1019.99
2022-11-15T00:36:24.260Z,1019.98
2022-11-15T00:37:24.820Z,1019.97
2022-11-15T00:38:25.379Z,1019.96
2022-11-15T00:39:25.934Z,1019.95
2022-11-15T00:40:26.524Z,1019.95
2022-11-15T00:41:27.093Z,1019.94
2022-11-15T00:42:27.647Z,1019.93
2022-11-15T00:43:28.443Z,1019.93
2022-11-15T00:44:29.161Z,1019.92
2022-11-15T00:45:29.746Z,1019.93
2022-11-15T00:46:30.310Z,1019.94
2022-11-15T00:47:30.879Z,1019.94
2022-11-15T00:48:31.438Z,1019.96
2022-11-15T00:49:32.024Z,1019.96
2022-11-15T00:50:32.627Z,1019.96
2022-11-15T00:51:33.178Z,1019.96
2022-11-15T00:52:33.747Z,1019.96
2022-11-15T00:53:34.733Z,1019.96
2022-11-15T00:54:34.939Z,1019.95
2022-11-15T00:55:35.558Z,1019.94
2022-11-15T00:56:36.126Z,1019.94
2022-11-15T00:57:36.683Z,1019.95
2022-11-15T00:58:37.236Z,1019.95
2022-11-15T00:59:37.811Z,1019.97
2022-11-15T01:00:38.527Z,1019.97
2022-11-15T01:01:39.145Z,1019.96
2022-11-15T01:02:39.697Z,1019.95
2022-11-15T01:03:40.255Z,1019.94
2022-11-15T01:04:40.832Z,1019.95
2022-11-15T01:05:41.439Z,1019.95
2022-11-15T01:06:42.006Z,1019.95
2022-11-15T01:07:42.561Z,1019.94
2022-11-15T01:08:43.112Z,1019.93
2022-11-15T01:09:43.664Z,1019.93
2022-11-15T01:10:44.256Z,1019.94
2022-11-15T01:11:44.812Z,1019.94
2022-11-15T01:12:45.375Z,1019.93
2022-11-15T01:13:45.926Z,1019.93
2022-11-15T01:14:46.481Z,1019.92
2022-11-15T01:15:47.139Z,1019.93
2022-11-15T01:16:47.697Z,1019.94
2022-11-15T01:17:48.255Z,1019.95
2022-11-15T01:18:48.808Z,1019.96
2022-11-15T01:19:49.396Z,1019.97
2022-11-15T01:20:49.981Z,1019.98
2022-11-15T01:21:50.552Z,1019.98
2022-11-15T01:22:51.117Z,1020.02
2022-11-15T01:23:51.676Z,1020.02
2022-11-15T01:24:52.240Z,1020.01
2022-11-15T01:25:52.879Z,1020.02
2022-11-15T01:26:53.433Z,1020.01
2022-11-15T01:27:53.992Z,1020.01
2022-11-15T01:28:54.549Z,1020.02
2022-11-15T01:29:55.097Z,1020.01
2022-11-15T01:30:55.851Z,1020.00
2022-11-15T01:31:56.402Z,1019.99
2022-11-15T01:32:56.960Z,1019.98
2022-11-15T01:33:57.516Z,1019.98
2022-11-15T01:34:58.095Z,1019.97
2022-11-15T01:35:58.767Z,1019.98
2022-11-15T01:36:59.327Z,1019.99
2022-11-15T01:37:59.906Z,1019.99
2022-11-15T01:39:00.472Z,1019.99
2022-11-15T01:40:01.045Z,1020.01
2022-11-15T01:41:01.633Z,1020.01
2022-11-15T01:42:02.193Z,1020.01
2022-11-15T01:43:02.753Z,1020.00
2022-11-15T01:44:03.312Z,1020.00
2022-11-15T01:45:03.866Z,1019.98
2022-11-15T01:46:04.470Z,1019.97
2022-11-15T01:47:05.033Z,1019.95
2022-11-15T01:48:05.599Z,1019.94
2022-11-15T01:49:06.156Z,1019.93
2022-11-15T01:50:06.741Z,1019.94
2022-11-15T01:51:07.338Z,1019.94
2022-11-15T01:52:07.891Z,1019.94
2022-11-15T01:53:08.445Z,1019.93
2022-11-15T01:54:09.002Z,1019.93
2022-11-15T01:55:09.572Z,1019.93
2022-11-15T01:56:19.795Z,1019.93
2022-11-15T01:57:11.361Z,1019.94
2022-11-15T01:58:11.425Z,1019.93
2022-11-15T01:59:11.981Z,1019.90
2022-11-15T02:00:12.532Z,1019.90
2022-11-15T02:01:13.301Z,1019.91
2022-11-15T02:02:13.878Z,1019.91
2022-11-15T02:03:14.431Z,1019.91
2022-11-15T02:04:14.994Z,1019.92
2022-11-15T02:05:15.580Z,1019.90
2022-11-15T02:06:16.174Z,1019.90
2022-11-15T02:07:16.782Z,1019.89
2022-11-15T02:08:17.368Z,1019.90
2022-11-15T02:09:17.919Z,1019.91
2022-11-15T02:10:18.472Z,1019.92
2022-11-15T02:11:19.064Z,1019.91
2022-11-15T02:12:19.623Z,1019.90
2022-11-15T02:13:20.186Z,1019.90
2022-11-15T02:14:20.752Z,1019.92
2022-11-15T02:15:21.323Z,1019.90
2022-11-15T02:16:21.910Z,1019.90
2022-11-15T02:17:22.469Z,1019.91
2022-11-15T02:18:23.029Z,1019.91
2022-11-15T02:19:23.596Z,1019.93
2022-11-15T02:20:24.174Z,1019.93
2022-11-15T02:21:24.861Z,1019.93
2022-11-15T02:22:25.421Z,1019.95
2022-11-15T02:23:25.995Z,1019.93
2022-11-15T02:24:26.559Z,1019.94
2022-11-15T02:25:27.111Z,1019.94
2022-11-15T02:26:27.733Z,1019.92
2022-11-15T02:27:28.296Z,1019.93
2022-11-15T02:28:28.850Z,1019.92
2022-11-15T02:29:29.425Z,1019.90
2022-11-15T02:30:29.983Z,1019.91
2022-11-15T02:31:30.730Z,1019.89
2022-11-15T02:32:31.295Z,1019.89
2022-11-15T02:33:32.320Z,1019.92
2022-11-15T02:34:32.518Z,1019.92
2022-11-15T02:35:33.105Z,1019.93
2022-11-15T02:36:33.714Z,1019.95
2022-11-15T02:37:34.275Z,1019.97
2022-11-15T02:38:34.842Z,1019.98
2022-11-15T02:39:35.404Z,1020.00
2022-11-15T02:40:35.954Z,1020.00
2022-11-15T02:41:36.558Z,1020.01
2022-11-15T02:42:37.124Z,1019.99
2022-11-15T02:43:37.688Z,1020.00
2022-11-15T02:44:38.328Z,1020.01
2022-11-15T02:45:38.894Z,1020.01
2022-11-15T02:46:39.491Z,1020.03
2022-11-15T02:47:40.053Z,1020.02
2022-11-15T02:48:40.605Z,1020.02
2022-11-15T02:49:41.170Z,1020.02
2022-11-15T02:50:41.761Z,1020.02
2022-11-15T02:51:42.350Z,1020.01
2022-11-15T02:52:42.910Z,1020.04
2022-11-15T02:53:43.471Z,1020.02
2022-11-15T02:54:44.029Z,1020.01
2022-11-15T02:55:44.588Z,1020.02
2022-11-15T02:56:45.219Z,1020.02
2022-11-15T02:57:45.772Z,1020.03
2022-11-15T02:58:46.340Z,1020.01
2022-11-15T02:59:46.906Z,1020.03
2022-11-15T03:00:47.502Z,1020.00
2022-11-15T03:01:48.222Z,1019.97
2022-11-15T03:02:55.645Z,1019.97
2022-11-15T03:03:49.684Z,1019.96
2022-11-15T03:04:50.243Z,1019.95
2022-11-15T03:05:50.843Z,1019.98
2022-11-15T03:06:51.518Z,1019.93
2022-11-15T03:07:52.085Z,1019.94
2022-11-15T03:08:52.639Z,1019.93
2022-11-15T03:09:53.202Z,1019.92
2022-11-15T03:10:53.776Z,1019.93
2022-11-15T03:11:54.364Z,1019.94
2022-11-15T03:12:54.918Z,1019.93
2022-11-15T03:13:55.465Z,1019.92
2022-11-15T03:14:56.032Z,1019.92
2022-11-15T03:15:56.594Z,1019.91
2022-11-15T03:16:57.200Z,1019.95
2022-11-15T03:17:57.762Z,1019.94
2022-11-15T03:18:58.324Z,1019.95
2022-11-15T03:19:59.029Z,1019.94
2022-11-15T03:20:59.606Z,1019.92
2022-11-15T03:22:00.262Z,1019.90
2022-11-15T03:23:00.823Z,1019.91
2022-11-15T03:24:01.376Z,1019.91
2022-11-15T03:25:01.935Z,1019.91
2022-11-15T03:26:02.505Z,1019.89
2022-11-15T03:27:03.110Z,1019.90
2022-11-15T03:28:03.665Z,1019.90
2022-11-15T03:29:04.221Z,1019.93
2022-11-15T03:30:04.774Z,1019.93
2022-11-15T03:31:05.328Z,1019.96
2022-11-15T03:32:06.120Z,1019.96
2022-11-15T03:33:06.674Z,1019.98
2022-11-15T03:34:07.226Z,1019.96
2022-11-15T03:35:07.784Z,1019.98
2022-11-15T03:36:08.382Z,1019.96
2022-11-15T03:37:08.981Z,1019.96
2022-11-15T03:38:09.650Z,1019.95
2022-11-15T03:39:10.228Z,1019.94
2022-11-15T03:40:10.777Z,1019.95
2022-11-15T03:41:11.332Z,1019.94
2022-11-15T03:42:11.940Z,1019.93
2022-11-15T03:43:12.500Z,1019.94
2022-11-15T03:44:13.054Z,1019.92
2022-11-15T03:45:13.615Z,1019.93
2022-11-15T03:46:14.187Z,1019.94
2022-11-15T03:47:14.774Z,1019.93
2022-11-15T03:48:15.338Z,1019.92
2022-11-15T03:49:15.898Z,1019.91
2022-11-15T03:50:16.451Z,1019.92
2022-11-15T03:51:17.038Z,1019.92
2022-11-15T03:52:17.639Z,1019.90
2022-11-15T03:53:18.209Z,1019.90
2022-11-15T03:54:18.764Z,1019.89
2022-11-15T03:55:19.317Z,1019.90
2022-11-15T03:56:19.874Z,1019.91
2022-11-15T03:57:20.486Z,1019.88
2022-11-15T03:58:21.042Z,1019.91
2022-11-15T03:59:21.600Z,1019.89
2022-11-15T04:00:22.162Z,1019.89
2022-11-15T04:01:22.757Z,1019.89
2022-11-15T04:02:23.472Z,1019.90
2022-11-15T04:03:24.053Z,1019.90
2022-11-15T04:04:24.616Z,1019.91
2022-11-15T04:05:25.183Z,1019.93
2022-11-15T04:06:25.771Z,1019.93
2022-11-15T04:07:26.446Z,1019.96
2022-11-15T04:08:26.947Z,1019.96
2022-11-15T04:09:27.511Z,1019.97
2022-11-15T04:10:28.081Z,1019.97
2022-11-15T04:11:28.640Z,1019.98
2022-11-15T04:12:29.226Z,1019.97
2022-11-15T04:13:30.226Z,1019.96
2022-11-15T04:14:30.468Z,1019.97
2022-11-15T04:15:31.041Z,1019.98
2022-11-15T04:16:31.604Z,1020.01
2022-11-15T04:17:32.187Z,1019.97
2022-11-15T04:18:32.753Z,1019.97
2022-11-15T04:19:33.312Z,1019.97
2022-11-15T04:20:33.867Z,1019.95
2022-11-15T04:21:34.451Z,1019.90
2022-11-15T04:22:35.035Z,1019.90
2022-11-15T04:23:35.746Z,1019.86
2022-11-15T04:24:36.316Z,1019.86
2022-11-15T04:25:36.880Z,1019.84
2022-11-15T04:26:37.439Z,1019.83
2022-11-15T04:27:38.095Z,1019.84
2022-11-15T04:28:38.673Z,1019.84
2022-11-15T04:29:38.631Z,1019.87
2022-11-15T04:30:40.193Z,1019.86
2022-11-15T04:31:40.754Z,1019.86
2022-11-15T04:32:41.466Z,1019.88
2022-11-15T04:33:42.032Z,1019.87
2022-11-15T04:34:42.594Z,1019.87
2022-11-15T04:35:43.151Z,1019.87
2022-11-15T04:36:43.745Z,1019.87
2022-11-15T04:37:49.087Z,1019.88
2022-11-15T04:38:45.238Z,1019.88
2022-11-15T04:39:45.752Z,1019.89
2022-11-15T04:40:46.259Z,1019.90
2022-11-15T04:41:46.765Z,1019.90
2022-11-15T04:42:47.321Z,1019.90
2022-11-15T04:43:47.834Z,1019.92
2022-11-15T04:44:48.336Z,1019.94
2022-11-15T04:45:48.849Z,1019.94
2022-11-15T04:46:49.354Z,1019.94
2022-11-15T04:47:49.962Z,1019.93
2022-11-15T04:48:53.063Z,1019.92
2022-11-15T04:49:51.312Z,1019.89
2022-11-15T04:50:51.817Z,1019.89
2022-11-15T04:51:52.344Z,1019.88
2022-11-15T04:52:52.898Z,1019.88
2022-11-15T04:53:53.397Z,1019.90
2022-11-15T04:54:53.898Z,1019.90
2022-11-15T04:55:54.404Z,1019.91
2022-11-15T04:56:54.902Z,1019.93
2022-11-15T04:57:55.465Z,1019.93
2022-11-15T04:58:55.965Z,1019.93
2022-11-15T04:59:56.476Z,1019.96
2022-11-15T05:00:57.034Z,1019.99
2022-11-15T05:01:57.556Z,1020.01
2022-11-15T05:02:58.141Z,1020.03
2022-11-15T05:03:58.639Z,1020.04
2022-11-15T05:04:59.144Z,1020.07
2022-11-15T05:05:59.660Z,1020.07
2022-11-15T05:07:00.378Z,1020.09
2022-11-15T05:08:00.960Z,1020.08
2022-11-15T05:09:01.461Z,1020.09
2022-11-15T05:10:01.955Z,1020.08
2022-11-15T05:11:02.961Z,1020.09
2022-11-15T05:12:03.469Z,1020.10
2022-11-15T05:13:04.009Z,1020.08
2022-11-15T05:14:04.513Z,1020.06
2022-11-15T05:15:05.013Z,1020.09
2022-11-15T05:16:05.522Z,1020.07
2022-11-15T05:17:06.031Z,1020.07
2022-11-15T05:18:06.563Z,1020.07
2022-11-15T05:19:07.069Z,1020.08
2022-11-15T05:20:07.572Z,1020.08
2022-11-15T05:21:08.073Z,1020.10
2022-11-15T05:22:08.606Z,1020.10
2022-11-15T05:23:09.137Z,1020.09
2022-11-15T05:24:09.672Z,1020.08
2022-11-15T05:25:10.170Z,1020.10
2022-11-15T05:26:10.684Z,1020.13
2022-11-15T05:27:11.194Z,1020.13
2022-11-15T05:28:11.803Z,1020.14
2022-11-15T05:29:12.308Z,1020.14
2022-11-15T05:30:12.805Z,1020.17
2022-11-15T05:31:13.313Z,1020.17
2022-11-15T05:32:13.809Z,1020.16
2022-11-15T05:33:14.441Z,1020.21
2022-11-15T05:34:14.942Z,1020.19
2022-11-15T05:35:15.443Z,1020.17
2022-11-15T05:36:15.952Z,1020.18
2022-11-15T05:37:16.483Z,1020.22
2022-11-15T05:38:17.010Z,1020.21
2022-11-15T05:39:17.610Z,1020.22
2022-11-15T05:40:18.119Z,1020.22
2022-11-15T05:41:18.853Z,1020.23
2022-11-15T05:42:19.876Z,1020.24
2022-11-15T05:43:20.558Z,1020.24
2022-11-15T05:44:20.766Z,1020.25
2022-11-15T05:45:26.502Z,1020.27
2022-11-15T05:46:23.570Z,1020.27
2022-11-15T05:47:22.794Z,1020.28
2022-11-15T05:48:23.428Z,1020.29
2022-11-15T05:49:23.958Z,1020.29
2022-11-15T05:50:24.469Z,1020.30
2022-11-15T05:51:25.010Z,1020.29
2022-11-15T05:52:29.406Z,1020.29
2022-11-15T05:53:26.561Z,1020.30
2022-11-15T05:54:27.925Z,1020.29
2022-11-15T05:55:27.697Z,1020.30
2022-11-15T05:56:28.199Z,1020.29
2022-11-15T05:57:28.701Z,1020.28
2022-11-15T05:58:30.764Z,1020.28
2022-11-15T05:59:30.764Z,1020.28
2022-11-15T06:00:30.501Z,1020.28
2022-11-15T06:01:31.459Z,1020.32
2022-11-15T06:02:32.804Z,1020.34
2022-11-15T06:03:33.178Z,1020.36
2022-11-15T06:04:33.370Z,1020.39
2022-11-15T06:05:40.333Z,1020.39
2022-11-15T06:06:34.878Z,1020.41
2022-11-15T06:07:35.283Z,1020.43
2022-11-15T06:08:35.907Z,1020.44
2022-11-15T06:09:40.250Z,1020.45
2022-11-15T06:10:39.265Z,1020.47
2022-11-15T06:15:16.222Z,1020.51
2022-11-15T06:16:26.738Z,1020.52
2022-11-15T06:17:18.309Z,1020.54
2022-11-15T06:18:22.679Z,1020.55
2022-11-15T06:19:19.772Z,1020.56
2022-11-15T06:20:20.289Z,1020.56
2022-11-15T06:21:20.797Z,1020.55
2022-11-15T06:22:21.309Z,1020.54
2022-11-15T06:23:33.447Z,1020.54
2022-11-15T06:24:22.663Z,1020.54
2022-11-15T06:25:23.980Z,1020.55
2022-11-15T06:26:23.981Z,1020.56
2022-11-15T06:27:24.607Z,1020.57
2022-11-15T06:28:25.117Z,1020.58
2022-11-15T06:29:25.765Z,1020.56
2022-11-15T06:30:26.281Z,1020.57
2022-11-15T06:31:26.783Z,1020.57
2022-11-15T06:32:27.422Z,1020.57
2022-11-15T06:33:28.091Z,1020.56
2022-11-15T06:34:30.843Z,1020.55
2022-11-15T06:35:29.421Z,1020.54
2022-11-15T06:36:30.600Z,1020.52
2022-11-15T06:37:32.221Z,1020.51
2022-11-15T06:38:31.266Z,1020.52
2022-11-15T06:39:55.380Z,1020.52
2022-11-15T06:41:11.431Z,1020.52
2022-11-15T06:41:53.492Z,1020.51
2022-11-15T06:42:34.735Z,1020.51
2022-11-15T06:43:44.466Z,1020.51
2022-11-15T06:44:35.259Z,1020.54
2022-11-15T06:45:37.924Z,1020.52
2022-11-15T06:46:50.462Z,1020.52
2022-11-15T06:47:42.156Z,1020.53
2022-11-15T06:48:39.797Z,1020.54
2022-11-15T06:49:48.362Z,1020.56
2022-11-15T06:50:40.805Z,1020.58
2022-11-15T06:51:54.023Z,1020.60
2022-11-15T06:52:50.834Z,1020.62
2022-11-15T06:53:46.349Z,1020.64
2022-11-15T06:54:46.036Z,1020.65
2022-11-15T06:55:44.011Z,1020.66
2022-11-15T06:56:46.887Z,1020.67
2022-11-15T06:57:45.459Z,1020.68
2022-11-15T06:59:18.309Z,1020.68
2022-11-15T06:59:52.153Z,1020.68
2022-11-15T07:00:54.591Z,1020.69
2022-11-15T07:02:06.645Z,1020.68
2022-11-15T07:03:10.058Z,1020.68
2022-11-15T07:03:49.904Z,1020.70
2022-11-15T07:04:50.708Z,1020.70
2022-11-15T07:05:52.546Z,1020.70
2022-11-15T07:06:52.019Z,1020.70
2022-11-15T07:07:57.274Z,1020.70
2022-11-15T07:08:55.099Z,1020.70
2022-11-15T07:10:19.950Z,1020.70
2022-11-15T07:10:55.104Z,1020.70
2022-11-15T07:11:55.553Z,1020.69
2022-11-15T07:13:01.988Z,1020.68
2022-11-15T07:13:58.882Z,1020.68
2022-11-15T07:14:58.174Z,1020.68
2022-11-15T07:16:00.137Z,1020.69
2022-11-15T07:17:03.002Z,1020.69
2022-11-15T07:18:04.002Z,1020.68
2022-11-15T07:19:32.532Z,1020.68
2022-11-15T07:20:22.954Z,1020.67
2022-11-15T07:21:02.839Z,1020.67
2022-11-15T07:22:09.478Z,1020.67
2022-11-15T07:23:03.960Z,1020.66
2022-11-15T07:24:08.472Z,1020.66
2022-11-15T07:25:46.016Z,1020.66
2022-11-15T07:26:15.583Z,1020.67
2022-11-15T07:27:06.649Z,1020.68
2022-11-15T07:28:12.755Z,1020.68
2022-11-15T07:29:31.367Z,1020.69
2022-11-15T07:30:10.060Z,1020.68
2022-11-15T07:33:21.108Z,1020.68
2022-11-15T07:34:16.884Z,1020.68
2022-11-15T07:35:17.553Z,1020.70
2022-11-15T07:36:18.124Z,1020.69
2022-11-15T07:37:18.666Z,1020.69
2022-11-15T07:38:19.190Z,1020.66
2022-11-15T07:39:19.735Z,1020.64
2022-11-15T07:40:20.304Z,1020.62
2022-11-15T07:41:20.905Z,1020.60
2022-11-15T07:42:21.653Z,1020.58
2022-11-15T07:43:22.375Z,1020.56
2022-11-15T07:44:22.881Z,1020.55
2022-11-15T07:45:23.428Z,1020.53
2022-11-15T07:46:23.957Z,1020.52
2022-11-15T07:47:24.497Z,1020.53
2022-11-15T07:48:35.690Z,1020.52
2022-11-15T07:49:25.992Z,1020.52
2022-11-15T07:50:27.030Z,1020.52
2022-11-15T07:51:27.284Z,1020.52
2022-11-15T07:52:28.413Z,1020.53
2022-11-15T07:53:28.836Z,1020.54
2022-11-15T07:54:29.539Z,1020.56
2022-11-15T07:55:30.157Z,1020.57
2022-11-15T07:56:30.728Z,1020.60
2022-11-15T07:57:31.249Z,1020.62
2022-11-15T07:58:31.832Z,1020.62
2022-11-15T07:59:32.812Z,1020.64
2022-11-15T08:00:33.642Z,1020.65
2022-11-15T08:01:38.847Z,1020.66
2022-11-15T08:02:35.434Z,1020.67
2022-11-15T08:03:36.096Z,1020.69
2022-11-15T08:04:44.391Z,1020.70
2022-11-15T08:07:36.907Z,1020.71
2022-11-15T08:08:36.540Z,1020.70
2022-11-15T08:13:10.691Z,1020.65
2022-11-15T08:14:14.223Z,1020.65
2022-11-15T08:15:18.664Z,1020.64
2022-11-15T08:16:22.973Z,1020.64
2022-11-15T08:19:07.643Z,1020.63
2022-11-15T08:24:29.419Z,1020.63
2022-11-15T08:27:11.536Z,1020.64
2022-11-15T08:31:32.546Z,1020.58
2022-11-15T08:38:06.526Z,1020.52
2022-11-15T08:42:20.351Z,1020.51
2022-11-15T08:43:54.864Z,1020.51
2022-11-15T08:44:23.059Z,1020.53
2022-11-15T08:45:23.771Z,1020.54
2022-11-15T08:46:29.647Z,1020.55
2022-11-15T08:47:26.563Z,1020.55
2022-11-15T08:48:25.573Z,1020.54
2022-11-15T08:49:29.931Z,1020.52
2022-11-15T08:50:55.565Z,1020.50
2022-11-15T08:53:33.026Z,1020.46
2022-11-15T08:54:19.619Z,1020.45
2022-11-15T08:55:18.796Z,1020.44
2022-11-15T08:56:19.744Z,1020.44
2022-11-15T08:57:21.629Z,1020.46
2022-11-15T08:58:21.155Z,1020.47
2022-11-15T08:59:21.622Z,1020.47
2022-11-15T09:00:24.607Z,1020.47
2022-11-15T09:01:27.272Z,1020.46
2022-11-15T09:02:23.945Z,1020.47
2022-11-15T09:03:26.742Z,1020.46
2022-11-15T09:06:14.861Z,1020.44
2022-11-15T09:07:16.360Z,1020.41
2022-11-15T09:08:46.119Z,1020.38
2022-11-15T09:09:17.964Z,1020.34
2022-11-15T09:10:20.244Z,1020.30
2022-11-15T09:11:19.491Z,1020.27
2022-11-15T09:12:19.872Z,1020.25
2022-11-15T09:13:21.406Z,1020.23
2022-11-15T09:14:22.079Z,1020.21
2022-11-15T09:15:25.314Z,1020.20
2022-11-15T09:16:25.164Z,1020.20
2022-11-15T09:17:25.401Z,1020.20
2022-11-15T09:18:25.415Z,1020.18
2022-11-15T09:19:25.549Z,1020.18
2022-11-15T09:20:26.545Z,1020.17
2022-11-15T09:21:27.359Z,1020.17
2022-11-15T09:22:43.523Z,1020.16
2022-11-15T09:23:46.031Z,1020.16
2022-11-15T09:24:34.654Z,1020.15
2022-11-15T09:25:33.426Z,1020.16
2022-11-15T09:26:31.410Z,1020.16
2022-11-15T09:27:32.484Z,1020.16
2022-11-15T09:28:33.770Z,1020.14
2022-11-15T09:30:04.009Z,1020.13
2022-11-15T09:32:56.392Z,1020.09
2022-11-15T09:33:55.772Z,1020.10
2022-11-15T09:34:50.835Z,1020.10
2022-11-15T09:37:19.628Z,1020.08
2022-11-15T09:38:36.067Z,1020.07
2022-11-15T09:39:48.867Z,1020.05
2022-11-15T09:40:16.720Z,1020.04
2022-11-15T09:43:39.473Z,1019.99
2022-11-15T09:46:24.912Z,1019.98
2022-11-15T09:54:53.435Z,1019.94
2022-11-15T09:56:11.129Z,1019.92
2022-11-15T09:56:33.109Z,1019.91
2022-11-15T09:57:43.085Z,1019.90
2022-11-15T09:58:35.681Z,1019.89
2022-11-15T09:59:36.190Z,1019.88
2022-11-15T10:00:46.471Z,1019.87
2022-11-15T10:01:37.531Z,1019.87
2022-11-15T10:02:38.727Z,1019.86
2022-11-15T10:03:39.693Z,1019.87
2022-11-15T10:04:39.879Z,1019.86
2022-11-15T10:05:40.437Z,1019.87
2022-11-15T10:06:56.007Z,1019.89
2022-11-15T10:07:53.199Z,1019.89
2022-11-15T10:09:24.060Z,1019.88
2022-11-15T10:09:43.789Z,1019.85
2022-11-15T10:10:43.958Z,1019.84
2022-11-15T10:11:43.957Z,1019.84
2022-11-15T10:12:45.635Z,1019.82
2022-11-15T10:13:45.583Z,1019.81
2022-11-15T10:14:51.628Z,1019.80
2022-11-15T10:15:56.504Z,1019.78
2022-11-15T10:16:49.383Z,1019.77
2022-11-15T10:17:50.657Z,1019.76
2022-11-15T10:18:59.346Z,1019.74
2022-11-15T10:19:52.507Z,1019.74
2022-11-15T10:20:51.791Z,1019.70
2022-11-15T10:21:55.026Z,1019.67
2022-11-15T10:22:55.161Z,1019.65
2022-11-15T10:23:55.453Z,1019.63
2022-11-15T10:24:55.338Z,1019.63
2022-11-15T10:26:00.070Z,1019.61
2022-11-15T10:28:51.993Z,1019.61
2022-11-15T10:31:52.012Z,1019.65
2022-11-15T10:32:39.736Z,1019.66
2022-11-15T10:33:38.419Z,1019.67
2022-11-15T10:34:39.120Z,1019.67
2022-11-15T10:35:48.834Z,1019.67
2022-11-15T10:36:44.939Z,1019.63
2022-11-15T10:37:42.787Z,1019.60
2022-11-15T10:38:42.188Z,1019.56
2022-11-15T10:39:42.736Z,1019.51
2022-11-15T10:41:11.348Z,1019.48
2022-11-15T10:41:52.409Z,1019.46
2022-11-15T10:42:59.137Z,1019.44
2022-11-15T10:43:47.820Z,1019.44
2022-11-15T10:44:48.983Z,1019.44
2022-11-15T10:45:54.440Z,1019.44
2022-11-15T10:46:54.100Z,1019.44
2022-11-15T10:47:59.599Z,1019.43
2022-11-15T10:49:07.793Z,1019.43
2022-11-15T10:49:50.168Z,1019.42
2022-11-15T10:50:51.021Z,1019.43
2022-11-15T10:51:58.155Z,1019.43
2022-11-15T10:52:55.443Z,1019.44
2022-11-15T10:53:57.979Z,1019.44
2022-11-15T10:54:54.904Z,1019.44
2022-11-15T10:55:54.345Z,1019.43
2022-11-15T10:56:55.315Z,1019.42
2022-11-15T10:57:55.800Z,1019.40
2022-11-15T10:59:25.922Z,1019.39
2022-11-15T10:59:57.848Z,1019.39
2022-11-15T11:00:58.129Z,1019.41
2022-11-15T11:01:58.759Z,1019.42
2022-11-15T11:02:59.050Z,1019.43
2022-11-15T11:03:59.823Z,1019.43
2022-11-15T11:05:01.062Z,1019.44
2022-11-15T11:06:01.140Z,1019.46
2022-11-15T11:07:01.900Z,1019.47
2022-11-15T11:08:02.734Z,1019.45
2022-11-15T11:09:04.166Z,1019.44
2022-11-15T11:10:22.832Z,1019.43
2022-11-15T11:11:09.162Z,1019.43
2022-11-15T11:12:06.904Z,1019.40
2022-11-15T11:13:15.839Z,1019.39
2022-11-15T11:14:16.559Z,1019.37
2022-11-15T11:15:09.264Z,1019.36
2022-11-15T11:16:45.263Z,1019.35
2022-11-15T11:17:10.192Z,1019.33
2022-11-15T11:18:16.106Z,1019.31
2022-11-15T11:19:11.128Z,1019.29
2022-11-15T11:20:12.809Z,1019.28
2022-11-15T11:21:12.478Z,1019.27
2022-11-15T11:22:13.513Z,1019.26
2022-11-15T11:23:21.900Z,1019.24
2022-11-15T11:24:16.291Z,1019.21
2022-11-15T11:25:15.515Z,1019.20
2022-11-15T11:26:18.804Z,1019.17
2022-11-15T11:27:18.840Z,1019.16
2022-11-15T11:28:21.021Z,1019.15
2022-11-15T11:29:18.016Z,1019.15
2022-11-15T11:30:28.606Z,1019.15
2022-11-15T11:31:19.138Z,1019.16
2022-11-15T11:32:19.648Z,1019.16
2022-11-15T11:33:20.332Z,1019.17
2022-11-15T11:34:20.839Z,1019.20
2022-11-15T11:40:59.414Z,1019.18
2022-11-15T11:41:49.573Z,1019.16
2022-11-15T11:42:49.525Z,1019.14
2022-11-15T11:43:51.239Z,1019.13
2022-11-15T11:44:52.027Z,1019.12
2022-11-15T11:45:52.748Z,1019.13
2022-11-15T11:46:53.555Z,1019.13
2022-11-15T11:47:54.430Z,1019.12
2022-11-15T11:48:55.782Z,1019.12
2022-11-15T11:49:56.885Z,1019.11
2022-11-15T11:50:56.942Z,1019.11
2022-11-15T11:51:57.817Z,1019.10
2022-11-15T11:53:03.930Z,1019.11
2022-11-15T11:53:59.380Z,1019.11
2022-11-15T11:54:59.949Z,1019.12
2022-11-15T11:56:00.899Z,1019.12
2022-11-15T11:57:01.863Z,1019.11
2022-11-15T11:58:05.136Z,1019.10
2022-11-15T11:59:05.256Z,1019.09
2022-11-15T12:00:09.152Z,1019.06
2022-11-15T12:01:09.944Z,1019.05
2022-11-15T12:02:07.028Z,1019.03
2022-11-15T12:03:06.869Z,1019.01
2022-11-15T12:04:07.491Z,1018.99
2022-11-15T12:05:09.110Z,1018.96
2022-11-15T12:06:08.628Z,1018.93
2022-11-15T12:07:09.217Z,1018.91
2022-11-15T12:08:09.791Z,1018.90
2022-11-15T12:09:10.300Z,1018.91
2022-11-15T12:10:10.809Z,1018.92
2022-11-15T12:11:11.314Z,1018.92
2022-11-15T12:12:11.822Z,1018.92
2022-11-15T12:13:12.391Z,1018.91
2022-11-15T12:14:12.906Z,1018.90
2022-11-15T12:15:13.415Z,1018.90
2022-11-15T12:16:14.549Z,1018.90
2022-11-15T12:17:14.579Z,1018.88
2022-11-15T12:18:15.131Z,1018.85
2022-11-15T12:19:15.665Z,1018.85
2022-11-15T12:20:16.171Z,1018.82
2022-11-15T12:21:16.680Z,1018.80
2022-11-15T12:22:17.198Z,1018.78
2022-11-15T12:23:17.741Z,1018.77
2022-11-15T12:24:18.251Z,1018.76
2022-11-15T12:25:18.761Z,1018.74
2022-11-15T12:26:19.277Z,1018.73
2022-11-15T12:27:25.156Z,1018.73
2022-11-15T12:28:20.715Z,1018.74
2022-11-15T12:29:21.231Z,1018.75
2022-11-15T12:30:21.759Z,1018.76
2022-11-15T12:31:22.262Z,1018.77
2022-11-15T12:32:22.767Z,1018.77
2022-11-15T12:33:23.350Z,1018.75
2022-11-15T12:34:23.857Z,1018.73
2022-11-15T12:35:24.355Z,1018.71
2022-11-15T12:36:24.857Z,1018.69
2022-11-15T12:37:25.362Z,1018.68
2022-11-15T12:38:25.916Z,1018.66
2022-11-15T12:39:26.431Z,1018.67
2022-11-15T12:40:26.939Z,1018.67
2022-11-15T12:41:27.451Z,1018.65
2022-11-15T12:42:28.007Z,1018.64
2022-11-15T12:43:29.509Z,1018.63
2022-11-15T12:44:29.037Z,1018.62
2022-11-15T12:45:29.559Z,1018.62
2022-11-15T12:46:30.070Z,1018.61
2022-11-15T12:47:30.846Z,1018.61
2022-11-15T12:48:31.680Z,1018.60
2022-11-15T12:49:31.841Z,1018.60
2022-11-15T12:50:32.366Z,1018.59
2022-11-15T12:51:32.872Z,1018.58
2022-11-15T12:52:33.386Z,1018.56
2022-11-15T12:53:33.933Z,1018.55
2022-11-15T12:54:34.525Z,1018.54
2022-11-15T12:55:35.028Z,1018.53
2022-11-15T12:56:35.552Z,1018.52
2022-11-15T12:57:36.066Z,1018.52
2022-11-15T12:58:36.771Z,1018.51
2022-11-15T12:59:37.273Z,1018.51
2022-11-15T13:00:37.779Z,1018.50
2022-11-15T13:01:38.384Z,1018.48
2022-11-15T13:02:38.889Z,1018.46
2022-11-15T13:03:39.436Z,1018.46
2022-11-15T13:04:39.948Z,1018.46
2022-11-15T13:05:40.461Z,1018.47
2022-11-15T13:06:40.983Z,1018.47
2022-11-15T13:07:41.611Z,1018.48
2022-11-15T13:08:42.214Z,1018.50
2022-11-15T13:09:42.735Z,1018.52
2022-11-15T13:10:43.252Z,1018.53
2022-11-15T13:11:43.777Z,1018.54